createdAt,value
2019-04-07T00:02:21.483Z,49.27
2019-04-07T00:04:51.040Z,51.10
2019-04-07T00:07:20.405Z,51.87
2019-04-07T00:09:50.317Z,49.93
2019-04-07T00:12:19.808Z,50.03
2019-04-07T00:14:49.110Z,51.77
2019-04-07T00:17:21.211Z,49.70
2019-04-07T00:19:50.681Z,52.10
2019-04-07T00:22:20.001Z,50.40
2019-04-07T00:24:55.916Z,49.57
2019-04-07T00:27:33.522Z,50.53
2019-04-07T00:30:07.637Z,51.60
2019-04-07T00:32:36.928Z,49.83
2019-04-07T00:35:06.303Z,50.37
2019-04-07T00:37:36.237Z,51.87
2019-04-07T00:40:06.914Z,51.90
2019-04-07T00:42:36.359Z,50.47
2019-04-07T00:45:06.238Z,49.10
2019-04-07T00:47:36.081Z,51.33
2019-04-07T00:50:05.621Z,51.43
2019-04-07T00:52:34.997Z,47.20
2019-04-07T00:55:06.836Z,49.53
2019-04-07T00:57:36.311Z,50.60
2019-04-07T01:00:07.678Z,45.90
2019-04-07T01:02:39.852Z,49.77
2019-04-07T01:05:09.493Z,46.97
2019-04-07T01:07:38.882Z,51.07
2019-04-07T01:10:08.753Z,49.23
2019-04-07T01:12:38.570Z,50.03
2019-04-07T01:15:07.948Z,47.33
2019-04-07T01:17:37.244Z,49.70
2019-04-07T01:20:07.352Z,48.47
2019-04-07T01:22:37.247Z,48.67
2019-04-07T01:25:07.198Z,49.40
2019-04-07T01:27:36.665Z,48.80
2019-04-07T01:30:06.368Z,47.60
2019-04-07T01:32:35.707Z,50.33
2019-04-07T01:35:05.744Z,48.10
2019-04-07T01:37:35.311Z,48.80
2019-04-07T01:40:05.680Z,50.13
2019-04-07T01:42:44.380Z,50.93
2019-04-07T01:45:42.279Z,51.90
2019-04-07T01:48:27.150Z,49.33
2019-04-07T01:51:24.628Z,48.43
2019-04-07T01:54:16.337Z,50.80
2019-04-07T01:56:55.596Z,51.27
2019-04-07T01:59:49.678Z,51.77
2019-04-07T02:02:29.222Z,47.80
2019-04-07T02:05:06.721Z,51.50
2019-04-07T02:07:52.368Z,51.77
2019-04-07T02:10:39.517Z,52.00
2019-04-07T02:13:28.880Z,48.90
2019-04-07T02:16:14.815Z,51.33
2019-04-07T02:18:55.407Z,51.30
2019-04-07T02:21:29.611Z,50.97
2019-04-07T02:24:24.544Z,51.07
2019-04-07T02:27:06.771Z,52.67
2019-04-07T02:30:01.857Z,50.60
2019-04-07T02:33:00.070Z,50.93
2019-04-07T02:35:56.043Z,48.57
2019-04-07T02:38:39.973Z,52.80
2019-04-07T02:41:30.956Z,51.40
2019-04-07T02:44:17.926Z,51.87
2019-04-07T02:47:00.777Z,53.50
2019-04-07T02:49:56.189Z,52.63
2019-04-07T02:52:51.355Z,53.30
2019-04-07T02:55:33.559Z,52.50
2019-04-07T02:58:19.258Z,54.43
2019-04-07T03:01:04.067Z,53.90
2019-04-07T03:03:48.776Z,53.13
2019-04-07T03:06:37.706Z,54.97
2019-04-07T03:09:06.376Z,52.97
2019-04-07T03:11:42.668Z,55.30
2019-04-07T03:14:43.427Z,54.17
2019-04-07T03:17:31.842Z,55.47
2019-04-07T03:20:20.068Z,52.37
2019-04-07T03:23:13.137Z,53.27
2019-04-07T03:26:00.864Z,53.00
2019-04-07T03:28:45.413Z,54.60
2019-04-07T03:31:44.073Z,56.83
2019-04-07T03:34:32.881Z,55.60
2019-04-07T03:37:22.947Z,55.03
2019-04-07T03:40:02.559Z,57.23
2019-04-07T03:43:00.068Z,56.73
2019-04-07T03:45:38.193Z,51.63
2019-04-07T03:48:16.290Z,55.43
2019-04-07T03:51:01.509Z,58.00
2019-04-07T03:53:59.445Z,55.27
2019-04-07T03:56:47.702Z,52.47
2019-04-07T03:59:38.918Z,55.13
2019-04-07T04:02:33.320Z,56.80
2019-04-07T04:05:27.372Z,54.83
2019-04-07T04:08:04.069Z,56.47
2019-04-07T04:10:55.692Z,58.20
2019-04-07T04:13:51.039Z,57.23
2019-04-07T04:16:25.769Z,58.47
2019-04-07T04:18:55.115Z,57.57
2019-04-07T04:21:24.416Z,57.13
2019-04-07T04:23:53.648Z,57.37
2019-04-07T04:26:23.716Z,44.07
2019-04-07T04:28:53.240Z,52.90
2019-04-07T04:31:22.492Z,58.50
2019-04-07T04:33:51.831Z,55.40
2019-04-07T04:36:22.056Z,55.80
2019-04-07T04:38:52.438Z,57.67
2019-04-07T04:41:23.141Z,56.37
2019-04-07T04:43:53.435Z,58.77
2019-04-07T04:46:23.644Z,58.20
2019-04-07T04:48:53.129Z,56.50
2019-04-07T04:51:22.338Z,58.03
2019-04-07T04:53:51.765Z,56.87
2019-04-07T04:56:22.753Z,60.07
2019-04-07T04:58:53.143Z,57.70
2019-04-07T05:01:23.035Z,57.10
2019-04-07T05:03:52.544Z,56.07
2019-04-07T05:06:21.893Z,57.80
2019-04-07T05:08:51.221Z,55.53
2019-04-07T05:11:21.171Z,58.97
2019-04-07T05:13:50.502Z,58.23
2019-04-07T05:16:19.801Z,59.80
2019-04-07T05:18:49.187Z,55.13
2019-04-07T05:21:18.589Z,58.00
2019-04-07T05:23:48.056Z,57.57
2019-04-07T05:26:17.977Z,58.57
2019-04-07T05:28:47.241Z,56.37
2019-04-07T05:31:16.491Z,57.57
2019-04-07T05:33:46.442Z,56.10
2019-04-07T05:36:15.870Z,55.70
2019-04-07T05:38:45.514Z,56.37
2019-04-07T05:41:14.967Z,54.67
2019-04-07T05:43:44.773Z,54.17
2019-04-07T05:46:14.002Z,55.47
2019-04-07T05:48:43.619Z,52.83
2019-04-07T05:51:13.396Z,53.20
2019-04-07T05:53:46.464Z,52.53
2019-04-07T05:56:13.669Z,54.00
2019-04-07T05:58:43.809Z,50.23
2019-04-07T06:01:14.008Z,51.07
2019-04-07T06:03:43.633Z,51.97
2019-04-07T06:06:13.476Z,53.43
2019-04-07T06:08:42.860Z,50.73
2019-04-07T06:11:13.591Z,52.90
2019-04-07T06:13:44.622Z,50.57
2019-04-07T06:16:14.064Z,48.63
2019-04-07T06:18:44.443Z,49.30
2019-04-07T06:21:15.317Z,48.37
2019-04-07T06:23:45.366Z,50.03
2019-04-07T06:26:15.090Z,49.13
2019-04-07T06:28:48.480Z,48.47
2019-04-07T06:31:15.377Z,49.00
2019-04-07T06:33:44.675Z,47.50
2019-04-07T06:36:17.507Z,49.23
2019-04-07T06:38:49.830Z,48.40
2019-04-07T06:41:16.151Z,47.20
2019-04-07T06:43:45.448Z,47.37
2019-04-07T06:46:36.879Z,48.43
2019-04-07T06:49:27.834Z,49.83
2019-04-07T06:52:07.441Z,48.30
2019-04-07T06:55:07.737Z,47.57
2019-04-07T06:57:59.222Z,46.63
2019-04-07T07:00:46.200Z,48.43
2019-04-07T07:03:35.863Z,46.20
2019-04-07T07:06:21.980Z,45.93
2019-04-07T07:09:19.308Z,46.53
2019-04-07T07:12:22.434Z,47.80
2019-04-07T07:15:10.052Z,45.17
2019-04-07T07:17:48.622Z,46.30
2019-04-07T07:20:30.208Z,46.30
2019-04-07T07:23:05.901Z,44.23
2019-04-07T07:25:35.236Z,46.13
2019-04-07T07:28:04.529Z,43.80
2019-04-07T07:30:33.777Z,43.80
2019-04-07T07:33:07.352Z,43.60
2019-04-07T07:35:34.335Z,43.67
2019-04-07T07:38:03.793Z,43.77
2019-04-07T07:40:34.938Z,43.67
2019-04-07T07:43:04.422Z,42.27
2019-04-07T07:45:33.701Z,42.33
2019-04-07T07:48:03.135Z,39.37
2019-04-07T07:50:36.760Z,41.20
2019-04-07T07:53:03.622Z,39.47
2019-04-07T07:55:35.971Z,40.53
2019-04-07T07:58:04.052Z,39.93
2019-04-07T08:00:34.511Z,41.27
2019-04-07T08:03:04.862Z,37.93
2019-04-07T08:05:34.681Z,38.37
2019-04-07T08:08:05.836Z,40.33
2019-04-07T08:10:35.226Z,39.07
2019-04-07T08:13:07.723Z,39.83
2019-04-07T08:15:36.152Z,38.87
2019-04-07T08:18:07.615Z,37.70
2019-04-07T08:20:36.425Z,40.40
2019-04-07T08:23:05.818Z,39.00
2019-04-07T08:25:37.844Z,36.87
2019-04-07T08:28:07.100Z,36.23
2019-04-07T08:30:37.158Z,36.33
2019-04-07T08:33:07.273Z,37.00
2019-04-07T08:35:39.486Z,35.70
2019-04-07T08:38:11.058Z,35.20
2019-04-07T08:40:40.526Z,36.97
2019-04-07T08:43:09.849Z,36.33
2019-04-07T08:45:39.802Z,35.07
2019-04-07T08:48:09.162Z,35.10
2019-04-07T08:50:38.394Z,35.80
2019-04-07T08:53:10.330Z,37.50
2019-04-07T08:55:40.533Z,36.20
2019-04-07T08:58:09.954Z,35.33
2019-04-07T09:00:46.315Z,36.53
2019-04-07T09:03:15.868Z,35.13
2019-04-07T09:05:45.493Z,36.57
2019-04-07T09:08:15.052Z,37.47
2019-04-07T09:10:49.534Z,36.57
2019-04-07T09:13:33.163Z,36.40
2019-04-07T09:16:20.021Z,37.03
2019-04-07T09:19:08.385Z,34.90
2019-04-07T09:22:09.530Z,36.10
2019-04-07T09:24:53.203Z,37.77
2019-04-07T09:27:46.033Z,36.63
2019-04-07T09:30:26.286Z,34.57
2019-04-07T09:33:18.107Z,34.17
2019-04-07T09:36:01.533Z,35.57
2019-04-07T09:39:03.848Z,34.63
2019-04-07T09:41:43.133Z,34.80
2019-04-07T09:44:30.882Z,36.40
2019-04-07T09:47:23.706Z,36.07
2019-04-07T09:50:16.291Z,35.57
2019-04-07T09:53:04.769Z,34.80
2019-04-07T09:55:55.365Z,34.03
2019-04-07T09:58:43.604Z,33.57
2019-04-07T10:01:31.856Z,35.03
2019-04-07T10:04:08.778Z,35.03
2019-04-07T10:07:00.065Z,33.07
2019-04-07T10:09:48.390Z,33.60
2019-04-07T10:12:40.408Z,33.53
2019-04-07T10:15:44.271Z,33.70
2019-04-07T10:18:41.666Z,33.03
2019-04-07T10:21:28.145Z,34.13
2019-04-07T10:24:15.324Z,34.20
2019-04-07T10:27:12.650Z,33.73
2019-04-07T10:29:50.301Z,32.37
2019-04-07T10:32:39.527Z,31.13
2019-04-07T10:35:27.056Z,32.50
2019-04-07T10:38:15.425Z,33.23
2019-04-07T10:41:12.920Z,33.50
2019-04-07T10:44:01.562Z,32.30
2019-04-07T10:46:39.510Z,30.43
2019-04-07T10:49:30.627Z,30.63
2019-04-07T10:52:09.276Z,31.03
2019-04-07T10:54:43.873Z,32.17
2019-04-07T10:57:40.149Z,28.70
2019-04-07T11:00:26.543Z,30.40
2019-04-07T11:03:21.272Z,31.20
2019-04-07T11:06:02.712Z,28.93
2019-04-07T11:08:53.843Z,29.07
2019-04-07T11:11:43.817Z,28.67
2019-04-07T11:14:35.162Z,29.43
2019-04-07T11:17:27.258Z,30.07
2019-04-07T11:20:19.352Z,28.40
2019-04-07T11:23:13.861Z,28.47
2019-04-07T11:26:05.804Z,27.90
2019-04-07T11:28:46.861Z,25.13
2019-04-07T11:31:24.286Z,24.97
2019-04-07T11:34:00.856Z,23.47
2019-04-07T11:36:49.850Z,22.73
2019-04-07T11:39:26.367Z,22.53
2019-04-07T11:42:15.279Z,23.83
2019-04-07T11:45:00.206Z,22.97
2019-04-07T11:47:58.052Z,21.90
2019-04-07T11:50:41.906Z,20.40
2019-04-07T11:53:19.962Z,22.73
2019-04-07T11:55:58.707Z,20.37
2019-04-07T11:58:49.861Z,19.03
2019-04-07T12:01:50.982Z,17.80
2019-04-07T12:04:42.270Z,13.73
2019-04-07T12:07:29.253Z,13.77
2019-04-07T12:10:15.864Z,11.60
2019-04-07T12:13:03.688Z,10.73
2019-04-07T12:15:50.887Z,10.60
2019-04-07T12:18:54.548Z,11.07
2019-04-07T12:21:35.436Z,11.93
2019-04-07T12:24:24.634Z,11.83
2019-04-07T12:27:11.657Z,11.67
2019-04-07T12:30:00.143Z,12.13
2019-04-07T12:32:37.981Z,12.30
2019-04-07T12:35:41.588Z,11.63
2019-04-07T12:38:27.421Z,12.30
2019-04-07T12:41:32.027Z,12.60
2019-04-07T12:44:21.698Z,13.10
2019-04-07T12:47:10.235Z,14.47
2019-04-07T12:49:57.298Z,14.23
2019-04-07T12:52:46.269Z,14.57
2019-04-07T12:55:30.524Z,14.70
2019-04-07T12:58:17.053Z,14.87
2019-04-07T13:01:19.777Z,14.50
2019-04-07T13:04:06.043Z,15.40
2019-04-07T13:06:45.205Z,14.30
2019-04-07T13:09:33.106Z,14.27
2019-04-07T13:12:34.303Z,12.47
2019-04-07T13:15:26.302Z,11.97
2019-04-07T13:18:13.531Z,11.93
2019-04-07T13:21:02.213Z,12.43
2019-04-07T13:23:38.470Z,12.23
2019-04-07T13:26:19.674Z,13.63
2019-04-07T13:29:14.619Z,13.50
2019-04-07T13:31:58.176Z,14.17
2019-04-07T13:34:46.757Z,13.10
2019-04-07T13:37:23.432Z,14.10
2019-04-07T13:40:12.963Z,13.97
2019-04-07T13:43:13.370Z,13.73
2019-04-07T13:46:17.588Z,14.40
2019-04-07T13:48:51.619Z,14.17
2019-04-07T13:51:36.661Z,15.23
2019-04-07T13:54:20.097Z,15.27
2019-04-07T13:57:25.894Z,14.90
2019-04-07T14:00:16.887Z,14.53
2019-04-07T14:03:05.881Z,15.43
2019-04-07T14:05:54.617Z,13.67
2019-04-07T14:08:45.965Z,15.67
2019-04-07T14:11:32.969Z,14.47
2019-04-07T14:14:29.201Z,14.63
2019-04-07T14:17:11.526Z,14.77
2019-04-07T14:19:48.803Z,14.70
2019-04-07T14:22:38.866Z,14.07
2019-04-07T14:25:26.710Z,14.67
2019-04-07T14:28:09.966Z,14.60
2019-04-07T14:30:59.839Z,14.23
2019-04-07T14:33:49.094Z,14.57
2019-04-07T14:36:42.721Z,14.50
2019-04-07T14:39:33.911Z,14.47
2019-04-07T14:42:10.060Z,13.80
2019-04-07T14:44:52.247Z,12.70
2019-04-07T14:47:30.385Z,12.67
2019-04-07T14:50:23.169Z,12.07
2019-04-07T14:53:12.089Z,14.13
2019-04-07T14:55:51.371Z,12.83
2019-04-07T14:58:58.415Z,13.37
2019-04-07T15:01:36.834Z,13.40
2019-04-07T15:04:06.447Z,13.33
2019-04-07T15:06:36.595Z,13.10
2019-04-07T15:09:17.622Z,12.67
2019-04-07T15:11:58.774Z,12.27
2019-04-07T15:14:31.469Z,12.57
2019-04-07T15:16:59.223Z,13.03
2019-04-07T15:19:28.844Z,13.37
2019-04-07T15:21:59.833Z,12.90
2019-04-07T15:24:29.537Z,13.60
2019-04-07T15:26:59.310Z,14.10
2019-04-07T15:29:28.885Z,13.23
2019-04-07T15:31:58.604Z,13.03
2019-04-07T15:34:28.558Z,13.40
2019-04-07T15:36:57.950Z,12.97
2019-04-07T15:39:29.613Z,13.53
2019-04-07T15:41:58.127Z,12.93
2019-04-07T15:44:27.378Z,12.33
2019-04-07T15:46:57.472Z,12.63
2019-04-07T15:49:28.317Z,13.37
2019-04-07T15:51:58.046Z,13.47
2019-04-07T15:54:27.507Z,11.93
2019-04-07T15:56:58.582Z,13.30
2019-04-07T15:59:29.731Z,13.57
2019-04-07T16:01:58.718Z,13.57
2019-04-07T16:04:29.481Z,12.83
2019-04-07T16:07:00.136Z,13.37
2019-04-07T16:09:38.420Z,14.57
2019-04-07T16:12:00.603Z,13.30
2019-04-07T16:14:30.887Z,13.47
2019-04-07T16:17:03.886Z,12.80
2019-04-07T16:19:38.852Z,13.50
2019-04-07T16:22:04.295Z,13.20
2019-04-07T16:24:34.692Z,13.47
2019-04-07T16:27:05.742Z,14.10
2019-04-07T16:29:35.113Z,13.63
2019-04-07T16:32:08.135Z,13.53
2019-04-07T16:34:39.044Z,13.20
2019-04-07T16:37:09.425Z,13.27
2019-04-07T16:39:41.386Z,13.73
2019-04-07T16:42:10.822Z,13.77
2019-04-07T16:44:43.906Z,13.70
2019-04-07T16:47:19.309Z,13.73
2019-04-07T16:49:47.381Z,13.90
2019-04-07T16:52:13.535Z,14.13
2019-04-07T16:54:44.614Z,13.97
2019-04-07T16:57:13.809Z,13.67
2019-04-07T16:59:43.620Z,14.07
2019-04-07T17:02:14.502Z,13.10
2019-04-07T17:04:43.873Z,13.40
2019-04-07T17:07:15.655Z,13.03
2019-04-07T17:09:44.679Z,12.87
2019-04-07T17:12:14.940Z,12.67
2019-04-07T17:14:44.826Z,11.80
2019-04-07T17:17:18.074Z,12.40
2019-04-07T17:19:45.738Z,12.33
2019-04-07T17:22:16.726Z,13.13
2019-04-07T17:24:46.122Z,12.80
2019-04-07T17:27:16.069Z,12.73
2019-04-07T17:29:45.973Z,13.50
2019-04-07T17:32:16.878Z,13.53
2019-04-07T17:34:46.560Z,13.33
2019-04-07T17:37:18.945Z,14.30
2019-04-07T17:39:57.292Z,14.10
2019-04-07T17:42:28.304Z,14.93
2019-04-07T17:45:10.965Z,13.40
2019-04-07T17:48:09.817Z,14.67
2019-04-07T17:51:08.561Z,15.17
2019-04-07T17:53:52.833Z,15.37
2019-04-07T17:56:41.805Z,14.47
2019-04-07T17:59:38.442Z,14.90
2019-04-07T18:02:16.128Z,13.73
2019-04-07T18:05:13.381Z,15.10
2019-04-07T18:07:58.631Z,14.17
2019-04-07T18:10:50.759Z,14.87
2019-04-07T18:13:49.902Z,15.00
2019-04-07T18:16:35.258Z,14.33
2019-04-07T18:19:27.120Z,14.63
2019-04-07T18:22:13.684Z,14.30
2019-04-07T18:25:02.304Z,15.17
2019-04-07T18:27:47.394Z,14.50
2019-04-07T18:30:42.648Z,15.50
2019-04-07T18:33:30.190Z,14.40
2019-04-07T18:36:13.577Z,15.27
2019-04-07T18:39:04.645Z,15.37
2019-04-07T18:42:10.633Z,15.97
2019-04-07T18:44:56.273Z,15.40
2019-04-07T18:47:42.838Z,16.33
2019-04-07T18:50:30.730Z,14.93
2019-04-07T18:53:17.841Z,14.57
2019-04-07T18:56:15.272Z,15.77
2019-04-07T18:59:02.300Z,15.67
2019-04-07T19:01:53.292Z,16.13
2019-04-07T19:04:50.330Z,15.70
2019-04-07T19:07:30.458Z,17.13
2019-04-07T19:10:25.123Z,14.83
2019-04-07T19:13:15.941Z,14.40
2019-04-07T19:16:01.927Z,15.53
2019-04-07T19:18:59.342Z,15.40
2019-04-07T19:21:47.535Z,15.50
2019-04-07T19:24:25.489Z,15.47
2019-04-07T19:27:17.731Z,15.10
2019-04-07T19:30:05.871Z,13.87
2019-04-07T19:32:55.543Z,14.10
2019-04-07T19:35:49.770Z,13.73
2019-04-07T19:38:41.288Z,14.37
2019-04-07T19:41:33.775Z,15.17
2019-04-07T19:44:18.902Z,14.57
2019-04-07T19:47:01.618Z,13.67
2019-04-07T19:49:54.475Z,13.57
2019-04-07T19:52:41.467Z,13.50
2019-04-07T19:55:35.558Z,14.00
2019-04-07T19:58:17.719Z,13.57
2019-04-07T20:01:15.198Z,13.67
2019-04-07T20:04:02.642Z,12.90
2019-04-07T20:07:01.291Z,13.33
2019-04-07T20:09:45.811Z,13.53
2019-04-07T20:12:38.179Z,13.30
2019-04-07T20:15:36.508Z,13.70
2019-04-07T20:18:24.295Z,12.57
2019-04-07T20:21:15.913Z,13.13
2019-04-07T20:24:10.130Z,12.50
2019-04-07T20:26:56.470Z,13.50
2019-04-07T20:29:51.710Z,13.23
2019-04-07T20:32:39.098Z,12.93
2019-04-07T20:35:38.205Z,12.87
2019-04-07T20:38:32.578Z,13.23
2019-04-07T20:41:25.943Z,12.30
2019-04-07T20:44:01.143Z,12.40
2019-04-07T20:46:43.650Z,12.43
2019-04-07T20:49:32.868Z,12.70
2019-04-07T20:52:22.242Z,12.77
2019-04-07T20:55:08.811Z,12.03
2019-04-07T20:58:10.181Z,12.53
2019-04-07T21:00:55.959Z,12.07
2019-04-07T21:03:45.057Z,12.23
2019-04-07T21:06:29.921Z,11.90
2019-04-07T21:09:35.869Z,12.43
2019-04-07T21:12:25.035Z,12.10
2019-04-07T21:15:21.284Z,12.27
2019-04-07T21:18:02.064Z,12.43
2019-04-07T21:21:11.792Z,12.00
2019-04-07T21:23:59.385Z,12.50
2019-04-07T21:26:45.975Z,12.37
2019-04-07T21:29:35.199Z,13.77
2019-04-07T21:32:33.269Z,13.50
2019-04-07T21:35:19.457Z,14.87
2019-04-07T21:38:20.843Z,13.60
2019-04-07T21:41:12.160Z,14.03
2019-04-07T21:43:48.848Z,14.30
2019-04-07T21:46:30.983Z,13.87
2019-04-07T21:49:07.774Z,13.97
2019-04-07T21:51:49.434Z,14.53
2019-04-07T21:54:39.085Z,14.13
2019-04-07T21:57:36.484Z,13.80
2019-04-07T22:00:20.937Z,15.20
2019-04-07T22:02:59.763Z,14.40
2019-04-07T22:05:37.352Z,14.07
2019-04-07T22:08:17.355Z,13.07
2019-04-07T22:10:49.919Z,14.27
2019-04-07T22:13:16.577Z,14.90
2019-04-07T22:15:49.627Z,13.90
2019-04-07T22:18:17.365Z,14.40
2019-04-07T22:20:47.874Z,14.10
2019-04-07T22:23:17.678Z,14.37
2019-04-07T22:25:50.857Z,13.33
2019-04-07T22:28:20.678Z,13.93
2019-04-07T22:30:50.887Z,14.33
2019-04-07T22:33:23.007Z,14.97
2019-04-07T22:35:51.332Z,13.47
2019-04-07T22:38:23.083Z,13.00
2019-04-07T22:40:52.174Z,13.80
2019-04-07T22:43:21.463Z,13.80
2019-04-07T22:45:58.994Z,13.70
2019-04-07T22:48:25.261Z,13.07
2019-04-07T22:50:53.792Z,13.33
2019-04-07T22:53:27.300Z,13.60
2019-04-07T22:55:55.259Z,13.70
2019-04-07T22:58:24.571Z,13.87
2019-04-07T23:00:54.301Z,13.53
2019-04-07T23:03:23.989Z,13.83
2019-04-07T23:05:53.416Z,14.30
2019-04-07T23:08:22.670Z,13.03
2019-04-07T23:10:51.967Z,13.17
2019-04-07T23:13:21.697Z,12.47
2019-04-07T23:15:51.192Z,13.73
2019-04-07T23:18:20.950Z,12.87
2019-04-07T23:20:50.305Z,13.20
2019-04-07T23:23:19.592Z,13.43
2019-04-07T23:25:48.815Z,12.87
2019-04-07T23:28:18.822Z,13.33
2019-04-07T23:30:49.204Z,13.53
2019-04-07T23:33:18.485Z,12.70
2019-04-07T23:35:47.717Z,13.30
2019-04-07T23:38:16.989Z,13.90
2019-04-07T23:40:46.217Z,13.13
2019-04-07T23:43:15.505Z,13.13
2019-04-07T23:45:44.827Z,13.87
2019-04-07T23:48:14.140Z,13.40
2019-04-07T23:50:43.591Z,14.03
2019-04-07T23:53:49.255Z,13.53
2019-04-07T23:56:18.475Z,13.27
2019-04-07T23:58:47.671Z,14.57
